Time;durP1;ratioP1;P1;durP2;ratioP2;P2;SDS_P1;SDS_P2;PMS_P1;PMS_P2;Temp;Humidity;BMP_temperature;BMP_pressure;BME280_temperature;BME280_humidity;BME280_pressure;Samples;Min_cycle;Max_cycle;Signal;HPM_P1;HPM_P2
2023/03/08 00:01:44;;;;;;;8.15;7.30;;;;;;;;;;5030490;28;20045;-66
2023/03/08 00:04:10;;;;;;;8.63;7.25;;;;;;;;;;5049728;28;20059;-66
2023/03/08 00:06:37;;;;;;;8.48;7.18;;;;;;;;;;5027082;28;20075;-66
2023/03/08 00:09:03;;;;;;;8.80;6.70;;;;;;;;;;5051244;28;20048;-66
2023/03/08 00:11:30;;;;;;;7.72;6.75;;;;;;;;;;5023171;28;20049;-66
2023/03/08 00:13:56;;;;;;;10.45;7.38;;;;;;;;;;5051161;28;20049;-66
2023/03/08 00:16:23;;;;;;;8.20;7.03;;;;;;;;;;5048871;28;20401;-66
2023/03/08 00:18:49;;;;;;;8.98;7.13;;;;;;;;;;5051300;28;20049;-66
2023/03/08 00:21:17;;;;;;;7.20;6.50;;;;;;;;;;5046215;28;20041;-66
2023/03/08 00:23:43;;;;;;;7.90;7.10;;;;;;;;;;5051282;28;20041;-66
2023/03/08 00:26:10;;;;;;;8.52;7.43;;;;;;;;;;5046464;28;20052;-66
2023/03/08 00:28:37;;;;;;;8.18;7.20;;;;;;;;;;5050572;28;20168;-66
2023/03/08 00:31:07;;;;;;;8.30;7.32;;;;;;;;;;5043443;28;20471;-66
2023/03/08 00:33:34;;;;;;;8.07;7.18;;;;;;;;;;5050658;28;20515;-66
2023/03/08 00:36:05;;;;;;;8.30;7.50;;;;;;;;;;5046178;28;20049;-66
2023/03/08 00:38:33;;;;;;;7.65;6.82;;;;;;;;;;5054755;28;20128;-66
2023/03/08 00:41:00;;;;;;;8.57;7.40;;;;;;;;;;5036059;28;20465;-66
2023/03/08 00:43:27;;;;;;;7.72;7.03;;;;;;;;;;5054498;28;20067;-66
2023/03/08 00:45:53;;;;;;;8.57;7.63;;;;;;;;;;5044029;28;20051;-66
2023/03/08 00:48:20;;;;;;;9.15;8.20;;;;;;;;;;5054528;28;20049;-66
2023/03/08 00:50:46;;;;;;;9.10;8.20;;;;;;;;;;5031901;28;20049;-66
2023/03/08 00:53:12;;;;;;;9.23;7.90;;;;;;;;;;5053810;28;20057;-66
2023/03/08 00:55:46;;;;;;;8.57;7.55;;;;;;;;;;5041926;28;20053;-66
2023/03/08 00:58:12;;;;;;;9.48;8.57;;;;;;;;;;5053975;28;20045;-66
2023/03/08 01:00:38;;;;;;;10.02;8.15;;;;;;;;;;5040762;28;20045;-66
2023/03/08 01:03:05;;;;;;;8.88;7.97;;;;;;;;;;5054221;28;20053;-66
2023/03/08 01:05:31;;;;;;;9.68;8.10;;;;;;;;;;5029956;28;20489;-66
2023/03/08 01:07:57;;;;;;;11.27;9.27;;;;;;;;;;5052167;28;20045;-66
2023/03/08 01:10:24;;;;;;;12.10;9.30;;;;;;;;;;5042348;28;20049;-66
2023/03/08 01:12:50;;;;;;;9.48;8.55;;;;;;;;;;5050635;28;20059;-66
2023/03/08 01:15:16;;;;;;;11.80;9.48;;;;;;;;;;5051674;28;20414;-66
2023/03/08 01:17:43;;;;;;;12.48;10.27;;;;;;;;;;5054014;28;20061;-66
2023/03/08 01:20:09;;;;;;;12.80;10.05;;;;;;;;;;5050680;28;20053;-66
2023/03/08 01:22:36;;;;;;;10.93;9.30;;;;;;;;;;5053661;28;20055;-66
2023/03/08 01:25:02;;;;;;;11.30;9.48;;;;;;;;;;5050357;28;20049;-67
2023/03/08 01:27:28;;;;;;;10.88;9.57;;;;;;;;;;5053891;28;20136;-66
2023/03/08 01:29:55;;;;;;;12.10;9.32;;;;;;;;;;5046850;28;20065;-66
2023/03/08 01:32:21;;;;;;;12.90;10.07;;;;;;;;;;5053121;28;20057;-66
2023/03/08 01:34:48;;;;;;;14.98;10.52;;;;;;;;;;5048236;28;20187;-66
2023/03/08 01:37:14;;;;;;;17.08;11.98;;;;;;;;;;5053642;28;20041;-66
2023/03/08 01:39:41;;;;;;;16.30;11.95;;;;;;;;;;5047238;28;20405;-66
2023/03/08 01:42:07;;;;;;;14.27;10.93;;;;;;;;;;5049093;28;20049;-66
2023/03/08 01:44:50;;;;;;;12.05;10.60;;;;;;;;;;5048395;28;20047;-66
2023/03/08 01:47:18;;;;;;;13.23;10.82;;;;;;;;;;5050104;28;20041;-66
2023/03/08 01:49:45;;;;;;;13.48;11.15;;;;;;;;;;5046286;28;20147;-66
2023/03/08 01:52:18;;;;;;;15.82;12.00;;;;;;;;;;5047398;28;20394;-66
2023/03/08 01:54:50;;;;;;;16.00;13.35;;;;;;;;;;5046359;28;20045;-66
2023/03/08 01:57:16;;;;;;;17.98;13.88;;;;;;;;;;5047740;28;20059;-66
2023/03/08 01:59:43;;;;;;;19.33;14.38;;;;;;;;;;5043222;28;20390;-66
2023/03/08 02:02:10;;;;;;;22.55;15.50;;;;;;;;;;5039072;28;20131;-66
2023/03/08 02:04:36;;;;;;;21.45;15.68;;;;;;;;;;5047550;28;20077;-66
2023/03/08 02:07:03;;;;;;;21.75;16.45;;;;;;;;;;5044568;28;20052;-66
2023/03/08 02:09:29;;;;;;;22.10;16.33;;;;;;;;;;5045578;28;20042;-67
2023/03/08 02:11:58;;;;;;;22.20;15.63;;;;;;;;;;5031938;28;20426;-66
2023/03/08 02:14:24;;;;;;;26.08;17.88;;;;;;;;;;5050906;28;20063;-67
2023/03/08 02:16:52;;;;;;;23.48;17.02;;;;;;;;;;5052362;28;20041;-67
2023/03/08 02:19:34;;;;;;;26.30;17.42;;;;;;;;;;5049543;28;20709;-67
2023/03/08 02:22:10;;;;;;;25.88;17.02;;;;;;;;;;5051177;28;20045;-67
2023/03/08 02:24:36;;;;;;;31.63;19.58;;;;;;;;;;5049012;28;20115;-67
2023/03/08 02:27:08;;;;;;;34.30;20.63;;;;;;;;;;5052641;28;20140;-67
2023/03/08 02:29:34;;;;;;;39.17;22.35;;;;;;;;;;5048059;28;20052;-67
2023/03/08 02:32:01;;;;;;;36.58;20.80;;;;;;;;;;5051275;28;20057;-67
2023/03/08 02:34:27;;;;;;;33.42;21.73;;;;;;;;;;5048255;28;20049;-67
2023/03/08 02:36:53;;;;;;;34.40;21.05;;;;;;;;;;5051333;28;20401;-67
2023/03/08 02:39:20;;;;;;;33.50;21.60;;;;;;;;;;5048161;28;20047;-67
2023/03/08 02:41:46;;;;;;;33.65;21.02;;;;;;;;;;5038594;28;20050;-67
2023/03/08 02:44:13;;;;;;;36.83;22.00;;;;;;;;;;5050172;28;20059;-67
2023/03/08 02:46:39;;;;;;;36.50;21.73;;;;;;;;;;5035383;28;20045;-67
2023/03/08 02:49:05;;;;;;;32.05;21.38;;;;;;;;;;5051360;28;20055;-66
2023/03/08 02:51:32;;;;;;;35.15;22.33;;;;;;;;;;5040901;28;20497;-66
2023/03/08 02:53:58;;;;;;;38.22;22.30;;;;;;;;;;5051977;28;20049;-65
2023/03/08 02:56:24;;;;;;;41.60;22.83;;;;;;;;;;5028933;28;20052;-66
2023/03/08 02:58:51;;;;;;;37.85;22.88;;;;;;;;;;5051325;28;20449;-66
2023/03/08 03:01:17;;;;;;;49.97;27.02;;;;;;;;;;5027319;28;20053;-66
2023/03/08 03:03:43;;;;;;;61.92;29.60;;;;;;;;;;5051895;28;20048;-66
2023/03/08 03:06:14;;;;;;;75.28;30.63;;;;;;;;;;5037528;28;20041;-66
2023/03/08 03:08:41;;;;;;;98.85;33.72;;;;;;;;;;5052279;28;20048;-66
2023/03/08 03:11:11;;;;;;;78.15;31.17;;;;;;;;;;5022397;28;20056;-66
2023/03/08 03:13:38;;;;;;;70.03;30.48;;;;;;;;;;5051447;28;20515;-65
2023/03/08 03:16:06;;;;;;;69.47;30.73;;;;;;;;;;5050119;28;20049;-66
2023/03/08 03:18:33;;;;;;;79.78;31.88;;;;;;;;;;5051299;28;20562;-65
2023/03/08 03:21:07;;;;;;;79.93;31.98;;;;;;;;;;5048194;28;20056;-64
2023/03/08 03:23:33;;;;;;;69.05;32.00;;;;;;;;;;5051617;28;20140;-65
2023/03/08 03:26:04;;;;;;;80.85;32.80;;;;;;;;;;5046710;28;20045;-65
2023/03/08 03:28:30;;;;;;;86.05;34.42;;;;;;;;;;5023974;28;20468;-65
2023/03/08 03:30:56;;;;;;;90.22;35.45;;;;;;;;;;5046810;28;20075;-65
2023/03/08 03:33:23;;;;;;;98.10;38.35;;;;;;;;;;5050166;28;20052;-65
2023/03/08 03:35:49;;;;;;;89.65;35.95;;;;;;;;;;5045891;28;20059;-66
2023/03/08 03:38:16;;;;;;;88.43;36.65;;;;;;;;;;5051466;28;20052;-66
2023/03/08 03:40:42;;;;;;;74.68;35.38;;;;;;;;;;5041015;28;20063;-65
2023/03/08 03:43:08;;;;;;;83.53;34.95;;;;;;;;;;5046653;28;20140;-65
2023/03/08 03:45:35;;;;;;;81.80;34.55;;;;;;;;;;5044559;28;20045;-66
2023/03/08 03:48:01;;;;;;;70.72;31.73;;;;;;;;;;5040189;28;20045;-66
2023/03/08 03:50:27;;;;;;;88.65;34.53;;;;;;;;;;5028465;28;20178;-66
2023/03/08 03:52:54;;;;;;;88.55;33.42;;;;;;;;;;5044903;28;20052;-69
2023/03/08 03:55:20;;;;;;;77.53;33.38;;;;;;;;;;5034969;28;20417;-68
2023/03/08 03:57:47;;;;;;;75.80;32.13;;;;;;;;;;5051244;28;20049;-68
2023/03/08 04:00:13;;;;;;;77.25;32.30;;;;;;;;;;5032937;28;20421;-69
2023/03/08 04:02:40;;;;;;;94.60;35.22;;;;;;;;;;5050845;28;20128;-68
2023/03/08 04:05:06;;;;;;;95.55;34.30;;;;;;;;;;5041531;28;20065;-69
2023/03/08 04:07:33;;;;;;;85.57;34.85;;;;;;;;;;5049475;28;20049;-71
2023/03/08 04:09:59;;;;;;;111.97;37.35;;;;;;;;;;5042289;28;20450;-72
2023/03/08 04:12:25;;;;;;;84.65;33.38;;;;;;;;;;5050212;28;20401;-73
2023/03/08 04:14:52;;;;;;;77.97;32.78;;;;;;;;;;5047124;28;20041;-73
2023/03/08 04:17:18;;;;;;;70.97;32.25;;;;;;;;;;5050130;28;20057;-74
2023/03/08 04:19:46;;;;;;;64.97;30.30;;;;;;;;;;5044347;28;20048;-74
2023/03/08 04:22:13;;;;;;;73.72;32.95;;;;;;;;;;5039120;28;20221;-75
2023/03/08 04:24:39;;;;;;;62.17;29.67;;;;;;;;;;5045612;28;20053;-75
2023/03/08 04:27:05;;;;;;;95.95;34.42;;;;;;;;;;5036862;28;20083;-76
2023/03/08 04:29:32;;;;;;;88.10;33.92;;;;;;;;;;5053056;28;20047;-69
2023/03/08 04:31:59;;;;;;;81.15;32.70;;;;;;;;;;5053700;28;20045;-72
2023/03/08 04:34:26;;;;;;;86.15;32.65;;;;;;;;;;5050058;28;20049;-73
2023/03/08 04:36:52;;;;;;;80.45;33.00;;;;;;;;;;5054438;28;20052;-74
2023/03/08 04:39:19;;;;;;;84.00;31.85;;;;;;;;;;5051367;28;20519;-75
2023/03/08 04:41:45;;;;;;;80.57;33.42;;;;;;;;;;5052658;28;20044;-76
2023/03/08 04:44:11;;;;;;;79.18;32.40;;;;;;;;;;5052560;28;20045;-76
2023/03/08 04:46:38;;;;;;;93.93;34.28;;;;;;;;;;5050009;28;20507;-76
2023/03/08 04:49:04;;;;;;;78.70;32.58;;;;;;;;;;5054061;28;20055;-76
2023/03/08 04:51:31;;;;;;;74.38;31.98;;;;;;;;;;5043042;28;20057;-76
2023/03/08 04:53:57;;;;;;;72.07;31.38;;;;;;;;;;5054341;28;20051;-77
2023/03/08 04:56:23;;;;;;;85.88;34.78;;;;;;;;;;5045993;28;20061;-77
2023/03/08 04:58:50;;;;;;;87.22;35.38;;;;;;;;;;5052655;28;20408;-77
2023/03/08 05:01:18;;;;;;;86.28;35.40;;;;;;;;;;5044709;28;20052;-77
2023/03/08 05:03:44;;;;;;;;;;;;;;;;;;5053494;28;20400;-77
2023/03/08 05:06:12;;;;;;;91.60;35.38;;;;;;;;;;5038716;28;19921;-77
2023/03/08 05:08:39;;;;;;;87.13;35.85;;;;;;;;;;5054221;28;20048;-77
2023/03/08 05:11:05;;;;;;;101.13;38.10;;;;;;;;;;5036334;28;20052;-76
2023/03/08 05:13:33;;;;;;;101.60;39.05;;;;;;;;;;5053812;28;20080;-76
2023/03/08 05:16:00;;;;;;;94.60;38.55;;;;;;;;;;5043387;28;20043;-76
2023/03/08 05:18:26;;;;;;;98.35;39.25;;;;;;;;;;5053772;28;20049;-76
2023/03/08 05:20:57;;;;;;;100.25;38.83;;;;;;;;;;5041395;28;20052;-76
2023/03/08 05:23:24;;;;;;;93.25;39.78;;;;;;;;;;5052748;28;20053;-76
2023/03/08 05:25:55;;;;;;;116.00;43.90;;;;;;;;;;5031069;28;20484;-76
2023/03/08 05:28:22;;;;;;;101.35;40.22;;;;;;;;;;5052865;28;20389;-76
2023/03/08 05:30:48;;;;;;;100.57;38.75;;;;;;;;;;5029646;28;20052;-76
2023/03/08 05:33:17;;;;;;;88.95;38.15;;;;;;;;;;5053362;28;20049;-75
2023/03/08 05:35:51;;;;;;;88.20;38.83;;;;;;;;;;5039390;28;20049;-75
2023/03/08 05:38:17;;;;;;;81.63;36.05;;;;;;;;;;5053324;28;20667;-75
2023/03/08 05:40:43;;;;;;;96.97;38.95;;;;;;;;;;5038513;28;20049;-75
2023/03/08 05:43:10;;;;;;;78.80;36.35;;;;;;;;;;5053550;28;20057;-75
2023/03/08 05:45:36;;;;;;;82.45;36.03;;;;;;;;;;5040341;28;20487;-75
2023/03/08 05:48:03;;;;;;;81.47;36.97;;;;;;;;;;5052078;28;20063;-76
2023/03/08 05:50:29;;;;;;;77.55;35.92;;;;;;;;;;5050265;28;20413;-76
2023/03/08 05:52:56;;;;;;;92.25;39.25;;;;;;;;;;5052982;28;20060;-76
2023/03/08 05:55:22;;;;;;;90.30;38.47;;;;;;;;;;5046000;28;20076;-76
2023/03/08 05:57:49;;;;;;;101.38;38.95;;;;;;;;;;5053302;28;20052;-77
2023/03/08 06:00:15;;;;;;;92.15;37.95;;;;;;;;;;5039286;28;20052;-77
2023/03/08 06:02:42;;;;;;;94.65;39.38;;;;;;;;;;5051734;28;20049;-78
2023/03/08 06:05:09;;;;;;;90.90;37.15;;;;;;;;;;5037164;28;20520;-77
2023/03/08 06:07:35;;;;;;;115.65;42.10;;;;;;;;;;5053491;28;20404;-75
2023/03/08 06:10:02;;;;;;;110.60;42.50;;;;;;;;;;5037707;28;20117;-77
2023/03/08 06:12:28;;;;;;;125.82;44.15;;;;;;;;;;5050674;28;20052;-77
2023/03/08 06:14:54;;;;;;;98.50;40.72;;;;;;;;;;5039252;28;20492;-76
2023/03/08 06:17:21;;;;;;;119.18;44.17;;;;;;;;;;5048184;28;20048;-76
2023/03/08 06:19:47;;;;;;;113.70;44.22;;;;;;;;;;5041860;28;20045;-77
2023/03/08 06:22:14;;;;;;;105.60;42.67;;;;;;;;;;5044042;28;20049;-77
2023/03/08 06:24:41;;;;;;;95.93;40.03;;;;;;;;;;5043089;28;20054;-76
2023/03/08 06:27:07;;;;;;;99.90;40.35;;;;;;;;;;5046551;28;20365;-77
2023/03/08 06:29:33;;;;;;;99.38;42.05;;;;;;;;;;5046070;28;20060;-77
2023/03/08 06:32:00;;;;;;;111.93;42.55;;;;;;;;;;5038840;28;20055;-78
2023/03/08 06:34:27;;;;;;;112.55;43.72;;;;;;;;;;5048386;28;20050;-77
2023/03/08 06:36:56;;;;;;;106.03;41.35;;;;;;;;;;5033357;28;20075;-77
2023/03/08 06:39:23;;;;;;;97.93;41.45;;;;;;;;;;5048081;28;20049;-77
2023/03/08 06:41:49;;;;;;;119.13;44.45;;;;;;;;;;5030753;28;20051;-75
2023/03/08 06:44:15;;;;;;;119.93;42.88;;;;;;;;;;5047443;28;20046;-75
2023/03/08 06:46:42;;;;;;;118.72;43.72;;;;;;;;;;5033518;28;20080;-75
2023/03/08 06:49:09;;;;;;;105.97;41.05;;;;;;;;;;5030662;28;20058;-76
2023/03/08 06:51:35;;;;;;;95.85;38.30;;;;;;;;;;5035237;28;20056;-75
2023/03/08 06:54:01;;;;;;;107.72;41.10;;;;;;;;;;5052075;28;20489;-75
2023/03/08 06:56:28;;;;;;;110.78;39.90;;;;;;;;;;5030778;28;20112;-75
2023/03/08 06:58:54;;;;;;;93.47;38.75;;;;;;;;;;5032094;28;20045;-75
2023/03/08 07:01:21;;;;;;;109.00;40.90;;;;;;;;;;5045730;28;20055;-75
2023/03/08 07:03:47;;;;;;;94.93;37.30;;;;;;;;;;5042031;28;20045;-74
2023/03/08 07:06:14;;;;;;;93.32;39.40;;;;;;;;;;5045554;28;20049;-75
2023/03/08 07:08:40;;;;;;;92.80;38.97;;;;;;;;;;5051958;28;20041;-75
2023/03/08 07:11:10;;;;;;;95.47;38.63;;;;;;;;;;5047271;28;20131;-74
2023/03/08 07:13:36;;;;;;;81.75;38.45;;;;;;;;;;5043326;28;20045;-75
2023/03/08 07:16:07;;;;;;;97.07;41.40;;;;;;;;;;5030271;28;20053;-74
2023/03/08 07:18:33;;;;;;;88.70;40.42;;;;;;;;;;5031691;28;20045;-75
2023/03/08 07:21:00;;;;;;;90.07;40.25;;;;;;;;;;5024122;28;20048;-74
2023/03/08 07:23:26;;;;;;;87.85;40.05;;;;;;;;;;5040998;28;20052;-74
2023/03/08 07:25:52;;;;;;;83.18;40.75;;;;;;;;;;5032481;28;20045;-74
2023/03/08 07:28:19;;;;;;;90.97;39.17;;;;;;;;;;5035878;28;20137;-75
2023/03/08 07:30:47;;;;;;;91.32;40.47;;;;;;;;;;5031131;28;20439;-76
2023/03/08 07:33:13;;;;;;;84.22;37.78;;;;;;;;;;5031050;28;20053;-75
2023/03/08 07:35:40;;;;;;;89.95;37.30;;;;;;;;;;5030852;28;20111;-75
2023/03/08 07:38:07;;;;;;;67.82;34.50;;;;;;;;;;5044684;28;20514;-75
2023/03/08 07:40:33;;;;;;;72.25;35.05;;;;;;;;;;5033446;28;20583;-74
2023/03/08 07:42:59;;;;;;;80.40;36.95;;;;;;;;;;5047135;28;20055;-76
2023/03/08 07:45:26;;;;;;;79.97;36.30;;;;;;;;;;5045273;28;20053;-76
2023/03/08 07:47:52;;;;;;;69.18;33.70;;;;;;;;;;5032681;28;20560;-77
2023/03/08 07:50:19;;;;;;;69.60;35.00;;;;;;;;;;5031039;28;20507;-77
2023/03/08 07:52:46;;;;;;;68.40;37.30;;;;;;;;;;5041079;28;20057;-75
2023/03/08 07:55:13;;;;;;;61.83;32.45;;;;;;;;;;5040538;28;20144;-74
2023/03/08 07:57:39;;;;;;;65.07;32.63;;;;;;;;;;5031124;28;20041;-76
2023/03/08 08:00:06;;;;;;;61.53;32.55;;;;;;;;;;5031109;28;20077;-75
2023/03/08 08:02:33;;;;;;;66.47;33.33;;;;;;;;;;5034434;28;20045;-75
2023/03/08 08:04:59;;;;;;;56.28;31.35;;;;;;;;;;5051006;28;20102;-75
2023/03/08 08:07:26;;;;;;;68.30;33.63;;;;;;;;;;5050609;28;20125;-75
2023/03/08 08:09:52;;;;;;;71.13;34.22;;;;;;;;;;5048531;28;20110;-75
2023/03/08 08:12:19;;;;;;;52.60;30.25;;;;;;;;;;5050807;28;20135;-75
2023/03/08 08:14:45;;;;;;;51.50;29.98;;;;;;;;;;5050655;28;20813;-74
2023/03/08 08:17:12;;;;;;;63.67;30.67;;;;;;;;;;5049696;28;20485;-75
2023/03/08 08:19:38;;;;;;;55.58;28.58;;;;;;;;;;5035698;28;20490;-75
2023/03/08 08:22:05;;;;;;;47.03;28.20;;;;;;;;;;5049405;28;20049;-77
2023/03/08 08:24:31;;;;;;;50.08;26.95;;;;;;;;;;5038259;28;20049;-75
2023/03/08 08:26:58;;;;;;;46.47;27.13;;;;;;;;;;5044922;28;20136;-77
2023/03/08 08:29:24;;;;;;;45.65;27.02;;;;;;;;;;5050827;28;20051;-76
2023/03/08 08:31:51;;;;;;;47.05;27.90;;;;;;;;;;5043226;28;20045;-75
2023/03/08 08:34:21;;;;;;;41.97;25.75;;;;;;;;;;5030528;28;20056;-75
2023/03/08 08:36:47;;;;;;;36.00;23.20;;;;;;;;;;5034054;28;20053;-74
2023/03/08 08:39:14;;;;;;;41.63;25.27;;;;;;;;;;5040828;28;20049;-74
2023/03/08 08:41:40;;;;;;;40.00;25.85;;;;;;;;;;5050235;28;20049;-74
2023/03/08 08:44:06;;;;;;;34.22;23.35;;;;;;;;;;5049084;28;20048;-74
2023/03/08 08:46:33;;;;;;;35.17;23.23;;;;;;;;;;5029925;28;20132;-74
2023/03/08 08:49:00;;;;;;;32.30;22.02;;;;;;;;;;5034554;28;20128;-74
2023/03/08 08:51:27;;;;;;;36.03;22.92;;;;;;;;;;5049804;28;20125;-75
2023/03/08 08:53:54;;;;;;;36.53;23.17;;;;;;;;;;5042928;28;20411;-75
2023/03/08 08:56:21;;;;;;;34.45;22.90;;;;;;;;;;5031081;28;20049;-74
2023/03/08 08:58:58;;;;;;;35.83;23.38;;;;;;;;;;5047502;28;20049;-75
2023/03/08 09:01:26;;;;;;;29.42;20.60;;;;;;;;;;5053220;28;20542;-75
2023/03/08 09:03:52;;;;;;;33.53;21.38;;;;;;;;;;5048908;28;20489;-75
2023/03/08 09:06:20;;;;;;;29.40;19.58;;;;;;;;;;5052979;28;20049;-75
2023/03/08 09:08:51;;;;;;;26.65;18.95;;;;;;;;;;5047771;28;20046;-75
2023/03/08 09:11:17;;;;;;;28.88;19.40;;;;;;;;;;5051771;28;20447;-75
2023/03/08 09:13:43;;;;;;;23.15;18.20;;;;;;;;;;5044209;28;20124;-75
2023/03/08 09:16:16;;;;;;;25.25;18.48;;;;;;;;;;5054379;28;20127;-75
2023/03/08 09:18:43;;;;;;;24.08;17.50;;;;;;;;;;5043338;28;20061;-75
2023/03/08 09:21:09;;;;;;;24.55;18.55;;;;;;;;;;5052355;28;20045;-75
2023/03/08 09:23:36;;;;;;;20.23;15.80;;;;;;;;;;5044779;28;20085;-75
2023/03/08 09:26:03;;;;;;;22.42;16.08;;;;;;;;;;5048725;28;20417;-75
2023/03/08 09:28:30;;;;;;;23.55;16.98;;;;;;;;;;5049197;28;20120;-75
2023/03/08 09:30:56;;;;;;;17.38;14.23;;;;;;;;;;5048620;28;20059;-75
2023/03/08 09:33:23;;;;;;;16.52;13.73;;;;;;;;;;5049791;28;21003;-75
2023/03/08 09:35:56;;;;;;;16.58;14.02;;;;;;;;;;5048393;28;20055;-75
2023/03/08 09:38:23;;;;;;;16.45;13.95;;;;;;;;;;5048823;28;20526;-75
2023/03/08 09:41:00;;;;;;;15.45;13.35;;;;;;;;;;5040751;28;20127;-75
2023/03/08 09:43:52;;;;;;;20.70;14.70;;;;;;;;;;5049502;28;20121;-75
2023/03/08 09:46:22;;;;;;;16.95;13.93;;;;;;;;;;5050096;28;20497;-75
2023/03/08 09:48:49;;;;;;;14.15;12.65;;;;;;;;;;5044544;28;20452;-75
2023/03/08 09:51:17;;;;;;;15.65;11.82;;;;;;;;;;5044299;28;20057;-75
2023/03/08 09:53:48;;;;;;;15.60;13.20;;;;;;;;;;5048904;28;20048;-76
2023/03/08 09:56:20;;;;;;;15.48;13.00;;;;;;;;;;5045217;28;20053;-74
2023/03/08 09:58:48;;;;;;;14.18;12.45;;;;;;;;;;5029378;28;20393;-75
2023/03/08 10:01:33;;;;;;;14.77;12.68;;;;;;;;;;5038470;28;20063;-75
2023/03/08 10:04:08;;;;;;;13.60;11.85;;;;;;;;;;5037460;28;20413;-73
2023/03/08 10:06:42;;;;;;;14.90;11.80;;;;;;;;;;5033372;28;20053;-74
2023/03/08 10:09:09;;;;;;;14.52;12.05;;;;;;;;;;5031252;28;20379;-74
2023/03/08 10:11:39;;;;;;;12.70;11.10;;;;;;;;;;5032300;28;20057;-73
2023/03/08 10:14:12;;;;;;;13.40;11.45;;;;;;;;;;5032747;28;20053;-73
2023/03/08 10:16:43;;;;;;;14.60;11.70;;;;;;;;;;5038080;28;20053;-73
2023/03/08 10:19:20;;;;;;;13.48;10.43;;;;;;;;;;5051974;28;20049;-76
2023/03/08 10:21:47;;;;;;;13.60;11.93;;;;;;;;;;5051184;28;20053;-74
2023/03/08 10:24:17;;;;;;;11.57;9.88;;;;;;;;;;5052290;28;20045;-74
2023/03/08 10:26:44;;;;;;;10.95;9.77;;;;;;;;;;5048102;28;20128;-73
2023/03/08 10:29:11;;;;;;;12.88;11.13;;;;;;;;;;5032135;28;20124;-72
2023/03/08 10:31:38;;;;;;;12.23;10.93;;;;;;;;;;5044426;28;20132;-73
2023/03/08 10:34:07;;;;;;;12.18;10.18;;;;;;;;;;5052292;28;20060;-74
2023/03/08 10:36:33;;;;;;;10.57;9.45;;;;;;;;;;5052180;28;20053;-75
2023/03/08 10:39:07;;;;;;;9.65;8.65;;;;;;;;;;5051974;28;20059;-75
2023/03/08 10:42:00;;;;;;;10.18;9.07;;;;;;;;;;5052091;28;20037;-74
2023/03/08 10:44:44;;;;;;;10.30;9.15;;;;;;;;;;5048679;28;20088;-74
2023/03/08 10:47:18;;;;;;;9.88;8.77;;;;;;;;;;5051879;28;20051;-76
2023/03/08 10:49:46;;;;;;;10.20;9.13;;;;;;;;;;5050349;28;20092;-77
2023/03/08 10:52:22;;;;;;;11.20;9.35;;;;;;;;;;5051760;28;20053;-76
2023/03/08 10:54:58;;;;;;;11.20;10.00;;;;;;;;;;5051595;28;20540;-75
2023/03/08 10:57:26;;;;;;;11.77;10.13;;;;;;;;;;5051764;28;20053;-76
2023/03/08 10:59:52;;;;;;;10.57;9.47;;;;;;;;;;5050764;28;20055;-79
2023/03/08 11:02:21;;;;;;;10.18;9.00;;;;;;;;;;5051677;28;20048;-76
2023/03/08 11:04:51;;;;;;;12.40;10.50;;;;;;;;;;5049762;28;20260;-75
2023/03/08 11:07:23;;;;;;;11.10;9.35;;;;;;;;;;5051200;28;20049;-74
2023/03/08 11:09:49;;;;;;;9.95;8.70;;;;;;;;;;5051695;28;20143;-76
2023/03/08 11:12:25;;;;;;;9.40;8.30;;;;;;;;;;5050014;28;20063;-75
2023/03/08 11:14:51;;;;;;;8.27;7.47;;;;;;;;;;5051515;28;20492;-78
2023/03/08 11:17:22;;;;;;;9.15;8.25;;;;;;;;;;5050122;28;20053;-75
2023/03/08 11:19:58;;;;;;;7.90;7.13;;;;;;;;;;5050792;28;20055;-77
2023/03/08 11:22:28;;;;;;;8.00;7.20;;;;;;;;;;5050259;28;20051;-75
2023/03/08 11:24:57;;;;;;;6.60;6.00;;;;;;;;;;5051353;28;20136;-75
2023/03/08 11:27:26;;;;;;;7.18;6.47;;;;;;;;;;5051452;28;20127;-76
2023/03/08 11:29:56;;;;;;;7.32;6.63;;;;;;;;;;5031141;28;20038;-76
2023/03/08 11:32:29;;;;;;;7.03;6.43;;;;;;;;;;5042808;28;20087;-77
2023/03/08 11:35:04;;;;;;;6.82;6.22;;;;;;;;;;5050971;28;20057;-76
2023/03/08 11:37:49;;;;;;;8.45;6.53;;;;;;;;;;5051047;28;20084;-77
2023/03/08 11:40:23;;;;;;;7.85;7.15;;;;;;;;;;5040846;28;20056;-77
2023/03/08 11:43:09;;;;;;;8.13;7.32;;;;;;;;;;5035590;28;20068;-76
2023/03/08 11:45:45;;;;;;;7.90;7.13;;;;;;;;;;5036447;28;20444;-76
2023/03/08 11:48:14;;;;;;;7.20;6.60;;;;;;;;;;5039696;28;20045;-77
2023/03/08 11:51:13;;;;;;;7.50;6.80;;;;;;;;;;5039071;28;20053;-77
2023/03/08 11:53:58;;;;;;;7.03;6.38;;;;;;;;;;4990234;28;20140;-76
2023/03/08 11:56:33;;;;;;;7.15;6.45;;;;;;;;;;5037519;28;20064;-79
2023/03/08 11:59:12;;;;;;;7.07;6.35;;;;;;;;;;5033899;28;20049;-77
2023/03/08 12:01:43;;;;;;;6.75;6.15;;;;;;;;;;5038769;28;20397;-77
2023/03/08 12:04:12;;;;;;;7.78;7.07;;;;;;;;;;5038937;28;20081;-77
2023/03/08 12:06:40;;;;;;;7.53;6.82;;;;;;;;;;5032171;28;20516;-77
2023/03/08 12:09:10;;;;;;;7.95;7.07;;;;;;;;;;5037075;28;20053;-77
2023/03/08 12:11:41;;;;;;;8.13;7.35;;;;;;;;;;5050848;28;20139;-77
2023/03/08 12:14:19;;;;;;;7.72;6.95;;;;;;;;;;5042230;28;20553;-77
2023/03/08 12:16:53;;;;;;;8.43;7.63;;;;;;;;;;5048939;28;20052;-77
2023/03/08 12:19:23;;;;;;;9.23;8.32;;;;;;;;;;5042258;28;20123;-77
2023/03/08 12:22:22;;;;;;;8.82;7.95;;;;;;;;;;5050675;28;20489;-77
2023/03/08 12:25:14;;;;;;;8.77;7.97;;;;;;;;;;5027657;28;20408;-76
2023/03/08 12:27:44;;;;;;;8.43;7.63;;;;;;;;;;5050761;28;20461;-76
2023/03/08 12:30:33;;;;;;;8.93;8.05;;;;;;;;;;5033711;28;20095;-76
2023/03/08 12:33:01;;;;;;;8.35;7.55;;;;;;;;;;5053142;28;20075;-76
2023/03/08 12:35:32;;;;;;;8.63;7.93;;;;;;;;;;5044155;28;20060;-76
2023/03/08 12:38:00;;;;;;;8.70;7.82;;;;;;;;;;5053516;28;20053;-76
2023/03/08 12:40:30;;;;;;;9.07;8.18;;;;;;;;;;5033026;28;20129;-76
2023/03/08 12:43:08;;;;;;;8.98;8.07;;;;;;;;;;5054650;28;20071;-76
2023/03/08 12:45:34;;;;;;;;;;;;;;;;;;5014455;28;20053;-76
2023/03/08 12:48:04;;;;;;;8.73;7.93;;;;;;;;;;5046144;28;19925;-76
2023/03/08 12:50:34;;;;;;;8.85;8.05;;;;;;;;;;5030441;28;20052;-76
2023/03/08 12:53:01;;;;;;;9.60;8.55;;;;;;;;;;5054507;28;20056;-76
2023/03/08 12:55:30;;;;;;;9.77;8.88;;;;;;;;;;5025993;28;20132;-76
2023/03/08 12:57:59;;;;;;;10.18;9.18;;;;;;;;;;5054752;28;20067;-76
2023/03/08 13:00:32;;;;;;;9.68;8.68;;;;;;;;;;5050811;28;20148;-76
2023/03/08 13:03:00;;;;;;;9.20;8.32;;;;;;;;;;5054257;28;20045;-76
2023/03/08 13:05:29;;;;;;;9.77;8.77;;;;;;;;;;5050345;28;20405;-76
2023/03/08 13:08:11;;;;;;;9.38;8.48;;;;;;;;;;5054575;28;20081;-76
2023/03/08 13:10:54;;;;;;;9.88;8.93;;;;;;;;;;5050677;28;20044;-76
2023/03/08 13:13:26;;;;;;;10.23;9.25;;;;;;;;;;5050491;28;20171;-76
2023/03/08 13:16:13;;;;;;;8.70;7.90;;;;;;;;;;5041624;28;20382;-76
2023/03/08 13:18:41;;;;;;;9.73;8.82;;;;;;;;;;5048211;28;20496;-76
2023/03/08 13:21:13;;;;;;;10.02;9.13;;;;;;;;;;5052506;28;20646;-77
2023/03/08 13:23:43;;;;;;;10.27;9.27;;;;;;;;;;5044312;28;20460;-77
2023/03/08 13:26:29;;;;;;;10.55;9.48;;;;;;;;;;5027002;28;20045;-77
2023/03/08 13:29:17;;;;;;;9.93;8.93;;;;;;;;;;5046463;28;20049;-76
2023/03/08 13:31:44;;;;;;;9.68;8.77;;;;;;;;;;5053225;28;20049;-77
2023/03/08 13:34:22;;;;;;;10.70;9.60;;;;;;;;;;5045334;28;20164;-77
2023/03/08 13:36:48;;;;;;;19.45;16.75;;;;;;;;;;5043632;28;20133;-76
2023/03/08 13:39:18;;;;;;;11.52;10.25;;;;;;;;;;5032989;28;20054;-76
2023/03/08 13:41:45;;;;;;;12.00;10.70;;;;;;;;;;5035417;28;20057;-77
2023/03/08 13:44:16;;;;;;;10.87;9.77;;;;;;;;;;5030835;28;20052;-78
2023/03/08 13:46:43;;;;;;;14.05;12.63;;;;;;;;;;5030896;28;20309;-76
2023/03/08 13:49:19;;;;;;;12.05;10.85;;;;;;;;;;5048817;28;20159;-75
2023/03/08 13:51:48;;;;;;;12.50;11.30;;;;;;;;;;5035615;28;20053;-78
2023/03/08 13:54:18;;;;;;;12.70;11.50;;;;;;;;;;5037346;28;20050;-76
2023/03/08 13:56:50;;;;;;;12.25;11.10;;;;;;;;;;5023412;28;20056;-76
2023/03/08 13:59:20;;;;;;;14.77;13.27;;;;;;;;;;5041602;28;20053;-76
2023/03/08 14:01:48;;;;;;;12.20;11.00;;;;;;;;;;5052973;28;20061;-77
2023/03/08 14:04:17;;;;;;;12.93;11.30;;;;;;;;;;5052960;28;20071;-77
2023/03/08 14:07:13;;;;;;;13.15;11.73;;;;;;;;;;5051436;28;20069;-77
2023/03/08 14:09:39;;;;;;;13.73;12.32;;;;;;;;;;5042330;28;20049;-77
2023/03/08 14:12:06;;;;;;;12.30;11.05;;;;;;;;;;5051359;28;20118;-76
2023/03/08 14:14:37;;;;;;;11.85;10.73;;;;;;;;;;5052695;28;20460;-76
2023/03/08 14:17:04;;;;;;;12.70;11.43;;;;;;;;;;5051331;28;20084;-75
2023/03/08 14:19:40;;;;;;;11.82;10.70;;;;;;;;;;5052465;28;20408;-75
2023/03/08 14:22:07;;;;;;;10.45;9.45;;;;;;;;;;5039305;28;20063;-76
2023/03/08 14:24:34;;;;;;;9.85;8.95;;;;;;;;;;5046870;28;20061;-76
2023/03/08 14:27:24;;;;;;;9.52;8.63;;;;;;;;;;5050509;28;20056;-75
2023/03/08 14:29:59;;;;;;;9.90;8.93;;;;;;;;;;5045127;28;20049;-76
2023/03/08 14:32:34;;;;;;;9.65;8.75;;;;;;;;;;5051601;28;20053;-75
2023/03/08 14:35:06;;;;;;;9.30;8.40;;;;;;;;;;5042123;28;20053;-76